Ana Sayfa
METAR-TAF:

METAR-TAF

Havaalanları :

Zinder, Nijer

Enlem: 13-47N, Boylam: 008-59E, yükseklik: 452 m

Güncel hava durumu gözlemi

Rapor saat 06:00 UTC de 54 dakika önce yapıldı.
Rüzgar güney/güneybatıdan 4 kt
Sıcaklık 28°C
Nem 79%
Basınç 1011 hPa
Görüş mesafesi 10 km veya daha fazla
1500 m altında bulut yok ve kümülonimbus yok

METAR: DRZR 190600Z 20004KT CAVOK 28/24 Q1011

Saat: 07:54 (06:54 UTC)

Tahmin

Rapor saat 05:00 UTC de 1 saat ve 54 dakika önce yapıldı.
Ayın 19'si saat 06 UTC'den ayın 20'si saat 06 UTC'ye kadar geçerli Tahmin
Rüzgar batıdan 8 kt
Görüş mesafesi 10 km veya daha fazla
1500 m altında bulut yok ve kümülonimbus yok
Geçici
ayın 19'si saat 15 UTC'den ayın 19'si saat 20 UTC'ye kadar
3000 ft yükseklikte parçalı bulutlu
4000 ft yükseklikte az bulutlu, Kümülonimbus.
gök gürültülü fırtına,

TAF: DRZR 190500Z 1906/2006 26008KT CAVOK TEMPO 1915/1920 TS SCT030 FEW040CB

4.000'den fazla havaalanı için hava durumu gözlemleri ve tahminleri (METAR ve TAF raporları).

Kullanılabilir istasyonlar harita üzerinde sarı ve kırmızı noktalarla gösterilir.

İstasyonun adını görmek için fareyi noktanın üzerinde gezdirin.

Sonrasında hava gözlem ve tahminlerini görmek için tıklayın.

Haritayı değiştirmek için: yaklaştırmak için siyah artı işaretli yeşil düğmeye ve uzaklaştırmak için de eksi işaretli düğmeye hızla tıklayın; bitişik haritalar için yeşil okları kullanın.


METAR-TAF: